createdAt,value
2023-04-29T00:01:27.530Z,1.67
2023-04-29T00:03:54.715Z,1.67
2023-04-29T00:06:22.689Z,1.45
2023-04-29T00:08:49.840Z,1.55
2023-04-29T00:11:16.638Z,1.58
2023-04-29T00:13:43.615Z,1.58
2023-04-29T00:16:10.600Z,2.00
2023-04-29T00:18:38.273Z,1.40
2023-04-29T00:21:08.692Z,1.60
2023-04-29T00:23:35.870Z,1.50
2023-04-29T00:26:02.907Z,1.20
2023-04-29T00:28:30.064Z,1.65
2023-04-29T00:30:57.370Z,1.48
2023-04-29T00:33:24.371Z,1.33
2023-04-29T00:35:52.016Z,1.42
2023-04-29T00:38:19.208Z,1.52
2023-04-29T00:40:46.359Z,1.50
2023-04-29T00:43:13.536Z,1.58
2023-04-29T00:45:40.693Z,2.08
2023-04-29T00:48:08.083Z,1.45
2023-04-29T00:50:35.316Z,1.25
2023-04-29T00:53:02.648Z,2.67
2023-04-29T00:55:30.216Z,1.33
2023-04-29T00:57:57.499Z,1.50
2023-04-29T01:00:26.466Z,1.48
2023-04-29T01:02:55.111Z,1.73
2023-04-29T01:05:22.574Z,2.20
2023-04-29T01:08:29.222Z,1.50
2023-04-29T01:11:08.357Z,1.52
2023-04-29T01:13:50.098Z,1.67
2023-04-29T01:16:34.289Z,1.50
2023-04-29T01:19:19.125Z,1.33
2023-04-29T01:21:48.967Z,1.55
2023-04-29T01:24:16.755Z,1.65
2023-04-29T01:26:51.695Z,2.13
2023-04-29T01:29:43.078Z,1.70
2023-04-29T01:32:17.333Z,1.60
2023-04-29T01:35:01.338Z,1.40
2023-04-29T01:37:42.784Z,1.70
2023-04-29T01:40:19.979Z,1.60
2023-04-29T01:43:00.916Z,1.50
2023-04-29T01:45:31.798Z,1.77
2023-04-29T01:47:59.885Z,1.80
2023-04-29T01:50:27.084Z,1.60
2023-04-29T01:52:54.256Z,1.70
2023-04-29T01:55:21.921Z,1.65
2023-04-29T01:57:48.862Z,2.10
2023-04-29T02:00:16.187Z,1.63
2023-04-29T02:02:43.148Z,1.67
2023-04-29T02:05:10.347Z,1.48
2023-04-29T02:07:37.440Z,1.42
2023-04-29T02:10:04.723Z,1.67
2023-04-29T02:12:32.328Z,1.67
2023-04-29T02:15:00.498Z,1.42
2023-04-29T02:17:27.853Z,1.05
2023-04-29T02:19:57.830Z,1.90
2023-04-29T02:22:24.779Z,1.70
2023-04-29T02:24:52.270Z,1.25
2023-04-29T02:27:19.240Z,1.30
2023-04-29T02:29:46.239Z,1.58
2023-04-29T02:32:15.583Z,1.63
2023-04-29T02:34:42.447Z,1.60
2023-04-29T02:37:09.429Z,1.38
2023-04-29T02:39:36.173Z,1.40
2023-04-29T02:42:03.275Z,1.13
2023-04-29T02:44:31.683Z,1.70
2023-04-29T02:46:58.675Z,1.17
2023-04-29T02:49:25.944Z,1.42
2023-04-29T02:51:53.102Z,1.40
2023-04-29T02:54:20.220Z,1.30
2023-04-29T02:56:47.108Z,1.10
2023-04-29T02:59:13.938Z,1.35
2023-04-29T03:01:41.615Z,1.33
2023-04-29T03:04:09.243Z,1.05
2023-04-29T03:06:36.564Z,1.20
2023-04-29T03:09:03.261Z,1.00
2023-04-29T03:11:30.225Z,1.30
2023-04-29T03:13:57.481Z,0.80
2023-04-29T03:16:24.657Z,1.13
2023-04-29T03:18:51.956Z,1.15
2023-04-29T03:21:18.955Z,1.33
2023-04-29T03:23:45.813Z,1.35
2023-04-29T03:26:12.863Z,1.33
2023-04-29T03:28:39.814Z,1.45
2023-04-29T03:31:06.834Z,1.40
2023-04-29T03:33:34.125Z,1.58
2023-04-29T03:36:00.952Z,1.40
2023-04-29T03:38:28.159Z,1.08
2023-04-29T03:40:55.147Z,1.50
2023-04-29T03:43:22.208Z,1.45
2023-04-29T03:45:49.081Z,1.60
2023-04-29T03:48:16.263Z,1.50
2023-04-29T03:50:43.278Z,1.40
2023-04-29T03:53:10.237Z,1.40
2023-04-29T03:55:37.144Z,1.10
2023-04-29T03:58:04.342Z,1.83
2023-04-29T04:00:32.262Z,1.60
2023-04-29T04:03:02.025Z,1.52
2023-04-29T04:05:30.595Z,1.67
2023-04-29T04:07:57.630Z,1.63
2023-04-29T04:10:24.616Z,1.65
2023-04-29T04:12:51.567Z,2.45
2023-04-29T04:15:18.516Z,2.10
2023-04-29T04:17:46.221Z,1.98
2023-04-29T04:20:13.353Z,1.85
2023-04-29T04:22:40.405Z,2.17
2023-04-29T04:25:08.504Z,1.95
2023-04-29T04:27:35.822Z,1.85
2023-04-29T04:30:02.691Z,2.08
2023-04-29T04:32:29.684Z,3.83
2023-04-29T04:34:56.806Z,1.85
2023-04-29T04:37:23.726Z,1.70
2023-04-29T04:39:50.838Z,2.35
2023-04-29T04:42:17.613Z,2.00
2023-04-29T04:44:44.511Z,2.40
2023-04-29T04:47:11.976Z,1.80
2023-04-29T04:49:38.946Z,2.00
2023-04-29T04:52:06.005Z,1.90
2023-04-29T04:54:33.294Z,2.05
2023-04-29T04:57:00.172Z,2.08
2023-04-29T04:59:27.226Z,1.90
2023-04-29T05:01:54.172Z,2.30
2023-04-29T05:04:21.096Z,2.20
2023-04-29T05:06:48.314Z,2.20
2023-04-29T05:09:15.682Z,2.08
2023-04-29T05:11:42.682Z,2.05
2023-04-29T05:14:09.651Z,1.98
2023-04-29T05:16:36.830Z,2.22
2023-04-29T05:19:04.195Z,2.42
2023-04-29T05:21:31.862Z,2.20
2023-04-29T05:23:58.636Z,2.30
2023-04-29T05:26:25.532Z,2.17
2023-04-29T05:28:52.479Z,2.13
2023-04-29T05:31:19.409Z,1.90
2023-04-29T05:33:46.296Z,2.17
2023-04-29T05:36:13.182Z,1.50
2023-04-29T05:38:40.188Z,1.92
2023-04-29T05:41:06.985Z,1.65
2023-04-29T05:43:33.723Z,2.00
2023-04-29T05:46:00.683Z,1.90
2023-04-29T05:48:28.559Z,2.28
2023-04-29T05:50:55.454Z,2.55
2023-04-29T05:53:22.395Z,2.10
2023-04-29T05:55:51.268Z,1.65
2023-04-29T05:58:18.662Z,1.77
2023-04-29T06:00:45.528Z,2.05
2023-04-29T06:03:12.766Z,2.10
2023-04-29T06:05:40.418Z,1.83
2023-04-29T06:08:07.766Z,1.90
2023-04-29T06:10:37.247Z,2.53
2023-04-29T06:13:04.242Z,2.22
2023-04-29T06:15:31.308Z,1.85
2023-04-29T06:17:58.422Z,3.30
2023-04-29T06:20:25.786Z,1.75
2023-04-29T06:22:52.740Z,1.88
2023-04-29T06:25:19.408Z,1.77
2023-04-29T06:27:46.293Z,2.15
2023-04-29T06:30:13.596Z,2.20
2023-04-29T06:32:40.802Z,1.60
2023-04-29T06:35:08.270Z,1.60
2023-04-29T06:37:37.552Z,1.70
2023-04-29T06:40:05.584Z,1.38
2023-04-29T06:42:32.505Z,1.88
2023-04-29T06:44:59.626Z,1.50
2023-04-29T06:47:27.431Z,1.23
2023-04-29T06:49:54.860Z,1.50
2023-04-29T06:52:21.913Z,1.55
2023-04-29T06:54:48.651Z,1.17
2023-04-29T06:57:16.534Z,1.27
2023-04-29T06:59:43.884Z,1.73
2023-04-29T07:02:11.518Z,1.20
2023-04-29T07:04:38.385Z,1.50
2023-04-29T07:07:05.480Z,1.35
2023-04-29T07:09:32.276Z,1.58
2023-04-29T07:11:59.089Z,1.08
2023-04-29T07:14:25.898Z,1.08
2023-04-29T07:16:55.684Z,1.33
2023-04-29T07:19:22.946Z,1.05
2023-04-29T07:21:49.760Z,0.90
2023-04-29T07:24:16.595Z,3.38
2023-04-29T07:26:45.171Z,0.88
2023-04-29T07:29:12.006Z,0.88
2023-04-29T07:31:38.913Z,1.05
2023-04-29T07:34:08.406Z,0.90
2023-04-29T07:36:35.783Z,0.93
2023-04-29T07:39:02.886Z,1.02
2023-04-29T07:41:29.840Z,0.90
2023-04-29T07:43:56.962Z,1.30
2023-04-29T07:46:23.907Z,1.45
2023-04-29T07:48:50.953Z,1.10
2023-04-29T07:51:18.076Z,0.95
2023-04-29T07:53:44.993Z,1.00
2023-04-29T07:56:12.027Z,1.00
2023-04-29T07:58:38.873Z,1.15
2023-04-29T08:01:12.474Z,1.10
2023-04-29T08:03:41.983Z,1.10
2023-04-29T08:06:09.466Z,0.90
2023-04-29T08:08:36.687Z,0.90
2023-04-29T08:11:03.695Z,0.90
2023-04-29T08:13:30.710Z,0.85
2023-04-29T08:15:57.713Z,0.85
2023-04-29T08:18:24.848Z,1.05
2023-04-29T08:20:51.823Z,0.98
2023-04-29T08:23:18.764Z,1.00
2023-04-29T08:25:45.635Z,1.10
2023-04-29T08:28:12.542Z,1.05
2023-04-29T08:30:41.595Z,1.40
2023-04-29T08:33:09.111Z,1.05
2023-04-29T08:35:39.423Z,1.38
2023-04-29T08:38:07.010Z,1.45
2023-04-29T08:40:42.184Z,1.48
2023-04-29T08:43:10.553Z,1.40
2023-04-29T08:45:37.869Z,1.45
2023-04-29T08:48:06.932Z,1.40
2023-04-29T08:50:41.728Z,1.25
2023-04-29T08:53:12.836Z,0.90
2023-04-29T08:55:47.313Z,1.40
2023-04-29T08:58:16.364Z,1.40
2023-04-29T09:00:44.803Z,1.40
2023-04-29T09:03:22.163Z,1.40
2023-04-29T09:05:53.178Z,1.27
2023-04-29T09:08:22.595Z,2.00
2023-04-29T09:10:55.804Z,1.50
2023-04-29T09:13:30.572Z,1.77
2023-04-29T09:15:57.929Z,1.67
2023-04-29T09:18:50.665Z,1.50
2023-04-29T09:21:27.528Z,1.25
2023-04-29T09:23:56.250Z,1.40
2023-04-29T09:26:24.599Z,1.05
2023-04-29T09:29:11.447Z,1.08
2023-04-29T09:31:42.406Z,1.60
2023-04-29T09:34:10.330Z,1.15
2023-04-29T09:36:39.493Z,1.67
2023-04-29T09:39:12.101Z,0.98
2023-04-29T09:41:59.935Z,1.40
2023-04-29T09:44:30.547Z,1.25
2023-04-29T09:47:03.333Z,1.40
2023-04-29T09:49:33.333Z,1.13
2023-04-29T09:52:02.837Z,1.40
2023-04-29T09:54:34.539Z,1.83
2023-04-29T09:57:04.969Z,1.30
2023-04-29T09:59:36.562Z,1.52
2023-04-29T10:02:23.405Z,1.45
2023-04-29T10:04:58.058Z,1.77
2023-04-29T10:07:27.802Z,1.85
2023-04-29T10:10:00.395Z,1.50
2023-04-29T10:12:27.675Z,1.70
2023-04-29T10:15:05.075Z,2.28
2023-04-29T10:17:47.911Z,1.50
2023-04-29T10:20:22.239Z,1.65
2023-04-29T10:22:50.730Z,2.08
2023-04-29T10:25:20.125Z,1.60
2023-04-29T10:27:49.020Z,1.55
2023-04-29T10:30:18.002Z,1.17
2023-04-29T10:35:20.589Z,1.60
2023-04-29T10:37:51.410Z,2.58
2023-04-29T10:40:25.054Z,1.77
2023-04-29T10:42:53.518Z,2.10
2023-04-29T10:45:21.356Z,1.73
2023-04-29T10:48:08.749Z,1.50
2023-04-29T10:50:48.062Z,2.10
2023-04-29T10:53:25.063Z,1.70
2023-04-29T10:55:58.572Z,1.63
2023-04-29T10:58:45.128Z,1.23
2023-04-29T11:01:15.923Z,2.00
2023-04-29T11:04:00.476Z,2.33
2023-04-29T11:06:36.920Z,1.58
2023-04-29T11:09:14.666Z,1.33
2023-04-29T11:11:52.306Z,1.60
2023-04-29T11:14:24.429Z,1.83
2023-04-29T11:16:53.592Z,1.42
2023-04-29T11:19:21.127Z,1.80
2023-04-29T11:21:48.028Z,1.42
2023-04-29T11:24:17.574Z,2.08
2023-04-29T11:26:44.807Z,1.92
2023-04-29T11:29:11.745Z,2.33
2023-04-29T11:31:41.213Z,2.30
2023-04-29T11:34:08.422Z,1.92
2023-04-29T11:36:36.159Z,1.85
2023-04-29T11:39:04.888Z,2.45
2023-04-29T11:41:32.055Z,1.75
2023-04-29T11:44:01.338Z,1.75
2023-04-29T11:46:32.208Z,1.98
2023-04-29T11:49:00.670Z,1.48
2023-04-29T11:51:28.868Z,1.92
2023-04-29T11:53:58.083Z,1.73
2023-04-29T11:56:26.022Z,1.70
2023-04-29T11:59:00.032Z,1.70
2023-04-29T12:01:27.270Z,1.95
2023-04-29T12:04:03.019Z,1.73
2023-04-29T12:06:30.601Z,2.00
2023-04-29T12:09:00.800Z,2.25
2023-04-29T12:11:29.154Z,1.92
2023-04-29T12:13:57.209Z,2.38
2023-04-29T12:16:24.590Z,2.70
2023-04-29T12:18:53.367Z,2.05
2023-04-29T12:21:22.509Z,1.60
2023-04-29T12:23:49.378Z,2.03
2023-04-29T12:26:17.571Z,1.77
2023-04-29T12:28:44.727Z,1.45
2023-04-29T12:31:11.766Z,1.70
2023-04-29T12:33:39.060Z,1.70
2023-04-29T12:36:18.557Z,1.60
2023-04-29T12:38:47.769Z,1.85
2023-04-29T12:41:27.018Z,1.90
2023-04-29T12:44:01.128Z,1.90
2023-04-29T12:46:28.057Z,1.80
2023-04-29T12:48:57.681Z,1.90
2023-04-29T12:51:30.269Z,1.60
2023-04-29T12:53:57.176Z,1.67
2023-04-29T12:56:24.435Z,1.95
2023-04-29T12:58:51.420Z,1.88
2023-04-29T13:01:18.820Z,1.63
2023-04-29T13:03:48.457Z,2.08
2023-04-29T13:06:17.126Z,1.58
2023-04-29T13:08:45.332Z,2.88
2023-04-29T13:11:13.705Z,3.13
2023-04-29T13:13:41.015Z,2.40
2023-04-29T13:16:08.181Z,1.60
2023-04-29T13:18:36.623Z,2.05
2023-04-29T13:21:04.222Z,2.15
2023-04-29T13:23:31.960Z,2.20
2023-04-29T13:25:59.037Z,2.40
2023-04-29T13:28:25.856Z,2.25
2023-04-29T13:30:53.050Z,2.15
2023-04-29T13:33:20.060Z,1.98
2023-04-29T13:35:48.823Z,1.98
2023-04-29T13:38:16.094Z,2.05
2023-04-29T13:40:46.505Z,1.85
2023-04-29T13:43:21.020Z,2.40
2023-04-29T13:45:57.103Z,2.00
2023-04-29T13:48:55.048Z,2.00
2023-04-29T13:54:17.327Z,1.85
2023-04-29T13:57:15.134Z,1.95
2023-04-29T14:04:16.665Z,2.10
2023-04-29T14:06:44.445Z,2.30
2023-04-29T14:09:11.838Z,2.20
2023-04-29T14:11:38.631Z,1.83
2023-04-29T14:14:05.517Z,1.83
2023-04-29T14:16:33.303Z,1.90
2023-04-29T14:19:02.798Z,1.88
2023-04-29T14:21:35.376Z,1.90
2023-04-29T14:24:03.631Z,1.77
2023-04-29T14:26:31.372Z,2.38
2023-04-29T14:29:00.159Z,2.33
2023-04-29T14:31:29.617Z,2.55
2023-04-29T14:33:57.544Z,3.05
2023-04-29T14:36:25.540Z,2.70
2023-04-29T14:38:53.024Z,2.33
2023-04-29T14:41:21.894Z,2.72
2023-04-29T14:43:49.032Z,2.92
2023-04-29T14:46:16.922Z,2.88
2023-04-29T14:48:44.160Z,3.33
2023-04-29T14:51:14.244Z,3.20
2023-04-29T14:53:41.139Z,4.03
2023-04-29T14:56:08.237Z,3.85
2023-04-29T14:58:35.469Z,4.65
2023-04-29T15:01:02.453Z,3.58
2023-04-29T15:03:29.454Z,3.38
2023-04-29T15:05:56.588Z,3.38
2023-04-29T15:08:23.708Z,3.60
2023-04-29T15:10:50.882Z,2.90
2023-04-29T15:13:18.009Z,3.13
2023-04-29T15:15:45.030Z,2.40
2023-04-29T15:18:12.059Z,2.53
2023-04-29T15:20:39.146Z,3.50
2023-04-29T15:23:06.782Z,2.78
2023-04-29T15:25:34.863Z,2.45
2023-04-29T15:28:05.073Z,2.63
2023-04-29T15:30:32.678Z,2.35
2023-04-29T15:33:00.129Z,2.40
2023-04-29T15:35:27.810Z,2.15
2023-04-29T15:37:54.936Z,2.17
2023-04-29T15:40:22.272Z,2.13
2023-04-29T15:42:49.130Z,2.20
2023-04-29T15:45:17.213Z,2.60
2023-04-29T15:47:44.357Z,2.20
2023-04-29T15:50:11.738Z,2.33
2023-04-29T15:52:38.837Z,2.20
2023-04-29T15:55:07.369Z,2.80
2023-04-29T15:57:37.920Z,2.40
2023-04-29T16:00:05.320Z,2.03
2023-04-29T16:02:32.383Z,2.15
2023-04-29T16:05:00.585Z,2.30
2023-04-29T16:07:27.637Z,2.70
2023-04-29T16:09:54.931Z,1.90
2023-04-29T16:12:22.086Z,2.20
2023-04-29T16:14:48.929Z,1.90
2023-04-29T16:17:15.776Z,1.90
2023-04-29T16:19:42.603Z,1.77
2023-04-29T16:22:10.543Z,2.08
2023-04-29T16:24:37.787Z,1.83
2023-04-29T16:27:04.668Z,2.28
2023-04-29T16:29:31.785Z,4.45
2023-04-29T16:31:58.528Z,2.58
2023-04-29T16:34:25.396Z,2.35
2023-04-29T16:36:52.751Z,2.00
2023-04-29T16:39:19.632Z,2.05
2023-04-29T16:41:46.637Z,1.92
2023-04-29T16:44:13.514Z,1.98
2023-04-29T16:46:41.115Z,2.05
2023-04-29T16:49:08.083Z,1.80
2023-04-29T16:51:35.257Z,2.15
2023-04-29T16:54:02.143Z,2.00
2023-04-29T16:56:37.487Z,1.80
2023-04-29T16:59:04.458Z,2.92
2023-04-29T17:01:32.326Z,3.15
2023-04-29T17:03:59.742Z,3.25
2023-04-29T17:06:26.700Z,3.95
2023-04-29T17:08:53.979Z,2.63
2023-04-29T17:11:20.919Z,3.15
2023-04-29T17:13:47.849Z,2.17
2023-04-29T17:16:14.952Z,2.08
2023-04-29T17:18:42.317Z,2.70
2023-04-29T17:21:09.423Z,2.95
2023-04-29T17:23:36.385Z,3.55
2023-04-29T17:26:04.842Z,2.05
2023-04-29T17:28:31.856Z,2.03
2023-04-29T17:31:01.278Z,2.85
2023-04-29T17:33:35.373Z,1.85
2023-04-29T17:36:03.834Z,1.42
2023-04-29T17:38:34.527Z,1.38
2023-04-29T17:41:04.569Z,1.80
2023-04-29T17:43:35.537Z,1.45
2023-04-29T17:46:02.446Z,2.47
2023-04-29T17:48:29.453Z,1.73
2023-04-29T17:50:56.423Z,1.63
2023-04-29T17:53:23.315Z,1.85
2023-04-29T17:55:50.155Z,1.80
2023-04-29T17:58:17.324Z,1.55
2023-04-29T18:00:45.982Z,1.85
2023-04-29T18:03:13.101Z,1.90
2023-04-29T18:05:40.128Z,0.98
2023-04-29T18:08:07.100Z,1.60
2023-04-29T18:10:34.086Z,1.55
2023-04-29T18:13:01.135Z,1.70
2023-04-29T18:15:30.526Z,1.35
2023-04-29T18:18:00.320Z,1.45
2023-04-29T18:20:27.220Z,1.60
2023-04-29T18:22:54.164Z,2.25
2023-04-29T18:25:21.207Z,1.65
2023-04-29T18:27:48.226Z,1.90
2023-04-29T18:30:15.091Z,1.58
2023-04-29T18:32:42.134Z,1.83
2023-04-29T18:35:09.540Z,1.40
2023-04-29T18:37:36.450Z,1.45
2023-04-29T18:40:05.693Z,1.90
2023-04-29T18:42:32.509Z,1.30
2023-04-29T18:45:00.036Z,1.58
2023-04-29T18:47:26.910Z,1.35
2023-04-29T18:49:54.286Z,1.48
2023-04-29T18:52:21.416Z,1.60
2023-04-29T18:54:48.492Z,1.60
2023-04-29T18:57:15.335Z,1.60
2023-04-29T18:59:42.545Z,1.70
2023-04-29T19:02:09.808Z,1.70
2023-04-29T19:04:38.990Z,2.25
2023-04-29T19:07:06.334Z,1.90
2023-04-29T19:09:33.315Z,2.00
2023-04-29T19:12:03.635Z,2.00
2023-04-29T19:14:33.259Z,1.65
2023-04-29T19:17:11.000Z,1.88
2023-04-29T19:19:38.020Z,1.90
2023-04-29T19:22:05.534Z,2.15
2023-04-29T19:24:40.025Z,1.88
2023-04-29T19:27:07.128Z,2.28
2023-04-29T19:29:34.138Z,2.40
2023-04-29T19:32:01.161Z,2.38
2023-04-29T19:34:28.149Z,1.58
2023-04-29T19:36:55.315Z,1.77
2023-04-29T19:39:22.274Z,1.52
2023-04-29T19:41:49.287Z,1.88
2023-04-29T19:44:16.226Z,1.75
2023-04-29T19:46:43.128Z,1.55
2023-04-29T19:49:10.077Z,2.22
2023-04-29T19:51:37.233Z,1.45
2023-04-29T19:54:05.185Z,1.33
2023-04-29T19:56:32.469Z,1.63
2023-04-29T19:58:59.480Z,1.52
2023-04-29T20:01:26.770Z,1.95
2023-04-29T20:04:00.100Z,1.80
2023-04-29T20:06:27.353Z,1.48
2023-04-29T20:08:54.424Z,1.40
2023-04-29T20:11:21.504Z,1.70
2023-04-29T20:13:48.567Z,1.80
2023-04-29T20:16:15.640Z,1.50
2023-04-29T20:18:42.306Z,1.50
2023-04-29T20:21:09.323Z,1.80
2023-04-29T20:23:36.272Z,1.67
2023-04-29T20:26:04.088Z,1.60
2023-04-29T20:28:31.132Z,1.60
2023-04-29T20:30:58.177Z,1.27
2023-04-29T20:33:25.220Z,1.75
2023-04-29T20:35:52.852Z,1.30
2023-04-29T20:38:20.329Z,1.40
2023-04-29T20:40:47.893Z,1.83
2023-04-29T20:43:14.763Z,1.70
2023-04-29T20:45:41.820Z,1.58
2023-04-29T20:48:08.948Z,1.73
2023-04-29T20:50:35.909Z,1.85
2023-04-29T20:53:02.906Z,1.65
2023-04-29T20:55:30.002Z,2.15
2023-04-29T20:57:56.931Z,1.35
2023-04-29T21:00:24.017Z,1.50
2023-04-29T21:02:56.891Z,1.40
2023-04-29T21:05:24.700Z,1.70
2023-04-29T21:07:51.535Z,1.17
2023-04-29T21:10:18.550Z,1.20
2023-04-29T21:12:45.453Z,1.27
2023-04-29T21:15:12.622Z,1.65
2023-04-29T21:17:39.702Z,1.15
2023-04-29T21:20:07.988Z,1.40
2023-04-29T21:22:35.101Z,1.33
2023-04-29T21:25:02.280Z,1.60
2023-04-29T21:27:29.231Z,1.63
2023-04-29T21:29:57.043Z,1.60
2023-04-29T21:32:24.555Z,1.55
2023-04-29T21:34:51.854Z,1.20
2023-04-29T21:37:18.633Z,1.55
2023-04-29T21:39:45.934Z,1.42
2023-04-29T21:42:13.803Z,1.50
2023-04-29T21:44:41.306Z,1.30
2023-04-29T21:47:09.550Z,1.20
2023-04-29T21:49:36.678Z,1.27
2023-04-29T21:52:03.936Z,1.55
2023-04-29T21:54:30.987Z,1.10
2023-04-29T21:56:58.181Z,1.00
2023-04-29T21:59:25.188Z,1.30
2023-04-29T22:02:00.365Z,1.10
2023-04-29T22:04:30.771Z,1.20
2023-04-29T22:06:59.020Z,1.30
2023-04-29T22:09:26.202Z,1.17
2023-04-29T22:11:53.253Z,1.42
2023-04-29T22:14:20.284Z,0.90
2023-04-29T22:16:47.414Z,1.48
2023-04-29T22:19:14.325Z,1.30
2023-04-29T22:21:43.288Z,1.30
2023-04-29T22:24:10.422Z,1.17
2023-04-29T22:26:37.430Z,1.45
2023-04-29T22:29:04.669Z,1.10
2023-04-29T22:31:31.743Z,1.27
2023-04-29T22:33:58.633Z,1.20
2023-04-29T22:36:25.447Z,1.33
2023-04-29T22:38:52.381Z,1.23
2023-04-29T22:41:19.931Z,1.20
2023-04-29T22:43:47.005Z,1.20
2023-04-29T22:46:14.073Z,1.20
2023-04-29T22:48:41.067Z,1.20
2023-04-29T22:51:08.185Z,1.10
2023-04-29T22:53:35.154Z,1.20
2023-04-29T22:56:02.915Z,1.30
2023-04-29T22:58:30.101Z,1.17
2023-04-29T23:00:58.194Z,1.10
2023-04-29T23:03:25.460Z,1.20
2023-04-29T23:05:57.399Z,1.20
2023-04-29T23:08:24.099Z,1.13
2023-04-29T23:10:50.875Z,1.30
2023-04-29T23:13:18.065Z,1.20
2023-04-29T23:15:45.523Z,1.17
2023-04-29T23:18:12.784Z,1.30
2023-04-29T23:20:39.922Z,1.10
2023-04-29T23:23:06.877Z,1.33
2023-04-29T23:25:34.876Z,0.90
2023-04-29T23:28:01.912Z,1.40
2023-04-29T23:30:29.397Z,1.15
2023-04-29T23:32:56.440Z,1.45
2023-04-29T23:35:23.587Z,1.33
2023-04-29T23:37:53.213Z,1.17
2023-04-29T23:40:20.198Z,1.40
2023-04-29T23:43:00.144Z,1.40
2023-04-29T23:45:27.046Z,1.20
2023-04-29T23:47:54.055Z,1.10
2023-04-29T23:50:20.908Z,1.27
2023-04-29T23:52:47.927Z,1.30
2023-04-29T23:55:14.921Z,1.00
2023-04-29T23:57:41.812Z,1.20
